createdAt,value
2019-05-23T05:11:59.843Z,17.80
2019-05-23T05:14:28.725Z,18.30
2019-05-23T05:16:57.247Z,18.30
2019-05-23T05:19:25.742Z,18.40
2019-05-23T05:21:54.596Z,18.40
2019-05-23T05:24:23.338Z,18.50
2019-05-23T05:26:51.832Z,18.50
2019-05-23T05:29:20.928Z,18.60
2019-05-23T05:34:17.672Z,18.60
2019-05-23T05:36:46.342Z,18.60
2019-05-23T05:39:14.838Z,18.70
2019-05-23T05:41:43.364Z,18.70
2019-05-23T05:44:12.338Z,18.70
2019-05-23T05:46:40.864Z,18.80
2019-05-23T05:49:09.616Z,18.80
2019-05-23T05:51:38.355Z,18.80
2019-05-23T05:54:06.905Z,18.80
2019-05-23T05:56:35.382Z,18.80
2019-05-23T05:59:03.908Z,18.90
2019-05-23T06:01:34.354Z,18.90
2019-05-23T06:04:01.753Z,19.00
2019-05-23T06:06:35.976Z,19.00
2019-05-23T06:09:10.789Z,19.10
2019-05-23T06:11:39.527Z,19.10
2019-05-23T06:14:08.159Z,19.20
2019-05-23T06:16:36.832Z,19.30
2019-05-23T06:19:05.298Z,19.30
2019-05-23T06:21:34.133Z,19.30
2019-05-23T06:24:02.638Z,19.30
2019-05-23T06:26:31.122Z,19.40
2019-05-23T06:28:59.891Z,19.50
2019-05-23T06:31:28.387Z,19.50
2019-05-23T06:33:56.865Z,19.60
2019-05-23T06:36:25.620Z,19.60
2019-05-23T06:38:54.121Z,19.70
2019-05-23T06:41:22.881Z,19.70
2019-05-23T06:43:51.597Z,19.70
2019-05-23T06:46:20.055Z,19.80
2019-05-23T06:48:48.529Z,19.80
2019-05-23T06:51:17.853Z,19.90
2019-05-23T06:53:46.584Z,19.90
2019-05-23T06:56:15.075Z,19.90
2019-05-23T06:58:44.202Z,19.90
2019-05-23T07:01:12.939Z,20.00
2019-05-23T07:03:43.608Z,20.00
2019-05-23T07:06:10.318Z,20.00
2019-05-23T07:08:39.493Z,20.00
2019-05-23T07:11:08.242Z,20.10
2019-05-23T07:13:36.956Z,20.10
2019-05-23T07:16:05.404Z,20.10
2019-05-23T07:18:33.942Z,20.10
2019-05-23T07:21:03.227Z,20.10
2019-05-23T07:23:32.377Z,20.10
2019-05-23T07:26:01.446Z,20.10
2019-05-23T07:28:30.755Z,20.10
2019-05-23T07:30:59.483Z,20.10
2019-05-23T07:33:28.574Z,20.10
2019-05-23T07:35:57.439Z,20.10
2019-05-23T07:38:26.542Z,20.10
2019-05-23T07:40:55.214Z,20.10
2019-05-23T07:43:23.957Z,20.10
2019-05-23T07:45:55.273Z,20.10
2019-05-23T07:48:23.813Z,20.20
2019-05-23T07:50:52.556Z,20.20
2019-05-23T07:55:53.629Z,20.20
2019-05-23T07:58:22.869Z,20.20
2019-05-23T08:00:55.474Z,20.20
2019-05-23T08:03:26.233Z,20.20
2019-05-23T08:05:54.961Z,20.20
2019-05-23T08:08:24.080Z,20.20
2019-05-23T08:10:53.169Z,20.20
2019-05-23T08:13:22.297Z,20.30
2019-05-23T08:15:51.366Z,20.30
2019-05-23T08:20:48.726Z,20.30
2019-05-23T08:23:17.536Z,20.30
2019-05-23T08:28:14.295Z,20.40
2019-05-23T08:30:42.782Z,20.40
2019-05-23T08:33:11.291Z,20.40
2019-05-23T08:35:40.112Z,20.40
2019-05-23T08:38:08.833Z,20.40
2019-05-23T08:40:37.343Z,20.40
2019-05-23T08:43:06.139Z,20.40
2019-05-23T08:45:35.258Z,20.50
2019-05-23T08:48:04.216Z,20.50
2019-05-23T08:50:32.933Z,20.50
2019-05-23T08:53:01.862Z,20.50
2019-05-23T08:57:59.546Z,20.50
2019-05-23T09:00:29.216Z,20.50
2019-05-23T09:02:59.137Z,20.50
2019-05-23T09:10:24.330Z,20.60
2019-05-23T09:12:52.828Z,20.60
2019-05-23T09:15:21.757Z,20.60
2019-05-23T09:17:53.476Z,20.60
2019-05-23T09:20:19.562Z,20.60
2019-05-23T09:22:48.669Z,20.60
2019-05-23T09:25:17.171Z,20.60
2019-05-23T09:27:46.087Z,20.70
2019-05-23T09:30:14.684Z,20.70
2019-05-23T09:32:43.498Z,20.70
2019-05-23T09:35:21.073Z,20.70
2019-05-23T09:37:40.959Z,20.70
2019-05-23T09:40:09.852Z,20.70
2019-05-23T09:42:38.600Z,20.70
2019-05-23T09:45:07.324Z,20.80
2019-05-23T09:47:36.154Z,20.80
2019-05-23T09:50:04.952Z,20.80
2019-05-23T09:52:33.442Z,20.80
2019-05-23T09:57:30.624Z,20.80
2019-05-23T09:59:59.695Z,20.80
2019-05-23T10:09:54.566Z,20.90
2019-05-23T10:12:23.222Z,20.90
2019-05-23T10:14:51.710Z,20.90
2019-05-23T10:22:17.191Z,21.00
2019-05-23T10:24:45.938Z,21.00
2019-05-23T10:29:43.215Z,21.00
2019-05-23T10:32:11.659Z,21.00
2019-05-23T10:34:40.799Z,21.00
2019-05-23T10:37:10.480Z,21.00
2019-05-23T10:42:07.202Z,21.00
2019-05-23T10:44:36.320Z,21.10
2019-05-23T10:47:05.143Z,21.10
2019-05-23T10:49:34.265Z,21.10
2019-05-23T10:52:03.141Z,21.10
2019-05-23T10:54:31.875Z,21.10
2019-05-23T10:57:01.210Z,21.10
2019-05-23T10:59:29.964Z,21.10
2019-05-23T11:01:58.703Z,21.10
2019-05-23T11:04:27.189Z,21.10
2019-05-23T11:06:56.052Z,21.20
2019-05-23T11:09:37.135Z,21.20
2019-05-23T11:11:54.068Z,21.20
2019-05-23T11:14:23.099Z,21.20
2019-05-23T11:16:51.866Z,21.20
2019-05-23T11:19:21.191Z,21.20
2019-05-23T11:26:47.175Z,21.30
2019-05-23T11:29:15.923Z,21.30
2019-05-23T11:34:12.978Z,21.30
2019-05-23T11:36:41.700Z,21.30
2019-05-23T11:39:10.291Z,21.30
2019-05-23T11:41:39.379Z,21.30
2019-05-23T11:44:08.226Z,21.30
2019-05-23T11:46:37.099Z,21.30
2019-05-23T11:49:05.911Z,21.30
2019-05-23T11:51:34.936Z,21.30
2019-05-23T11:54:08.469Z,21.30
2019-05-23T11:56:32.333Z,21.40
2019-05-23T11:59:01.941Z,21.40
2019-05-23T12:01:37.427Z,21.40
2019-05-23T12:06:55.234Z,21.40
2019-05-23T12:09:14.847Z,21.40
2019-05-23T12:11:43.560Z,21.40
2019-05-23T12:14:12.537Z,21.40
2019-05-23T12:19:09.558Z,21.40
2019-05-23T12:21:38.651Z,21.50
2019-05-23T12:24:07.514Z,21.50
2019-05-23T12:26:36.248Z,21.50
2019-05-23T12:29:04.755Z,21.60
2019-05-23T12:31:33.861Z,21.60
2019-05-23T12:34:02.590Z,21.60
2019-05-23T12:36:31.690Z,21.60
2019-05-23T12:39:00.525Z,21.60
2019-05-23T12:41:29.266Z,21.60
2019-05-23T12:43:58.094Z,21.70
2019-05-23T12:46:26.819Z,21.70
2019-05-23T12:49:00.135Z,21.70
2019-05-23T12:51:30.479Z,21.80
2019-05-23T12:53:59.188Z,21.80
2019-05-23T12:58:56.392Z,21.80
2019-05-23T13:01:25.442Z,21.80
2019-05-23T13:03:54.561Z,21.90
2019-05-23T13:06:23.345Z,21.90
2019-05-23T13:08:52.672Z,22.00
2019-05-23T13:11:21.815Z,22.00
2019-05-23T13:13:50.270Z,22.00
2019-05-23T13:16:18.887Z,22.00
2019-05-23T13:18:47.634Z,22.10
2019-05-23T13:23:45.495Z,22.10
2019-05-23T13:26:14.398Z,22.10
2019-05-23T13:28:43.218Z,22.10
2019-05-23T13:31:12.344Z,22.10
2019-05-23T13:33:41.184Z,22.10
2019-05-23T13:38:38.823Z,22.10
2019-05-23T13:41:07.690Z,22.10
2019-05-23T13:43:36.432Z,22.10
2019-05-23T13:48:33.436Z,22.10
2019-05-23T13:51:02.181Z,22.10
2019-05-23T13:53:30.649Z,22.10
2019-05-23T13:55:59.143Z,22.10
2019-05-23T13:58:28.214Z,22.10
2019-05-23T14:00:57.134Z,22.10
2019-05-23T14:05:54.795Z,22.10
2019-05-23T14:10:51.791Z,22.10
2019-05-23T14:13:20.858Z,22.10
2019-05-23T14:15:49.567Z,22.10
2019-05-23T14:18:19.782Z,22.10
2019-05-23T14:20:48.741Z,22.10
2019-05-23T14:28:18.727Z,22.20
2019-05-23T14:30:55.873Z,22.20
2019-05-23T14:33:31.830Z,22.20
2019-05-23T14:36:01.138Z,22.20
2019-05-23T14:40:59.208Z,22.20
2019-05-23T14:43:27.702Z,22.20
2019-05-23T14:46:02.510Z,22.20
2019-05-23T14:48:38.474Z,22.20
2019-05-23T14:53:41.688Z,22.20
2019-05-23T14:56:10.723Z,22.20
2019-05-23T14:58:39.413Z,22.20
2019-05-23T15:01:07.890Z,22.20
2019-05-23T15:03:36.706Z,22.20
2019-05-23T15:06:05.476Z,22.20
2019-05-23T15:08:49.666Z,22.20
2019-05-23T15:13:31.293Z,22.30
2019-05-23T15:15:59.784Z,22.30
2019-05-23T15:18:28.618Z,22.30
2019-05-23T15:20:57.719Z,22.30
2019-05-23T15:25:54.456Z,22.30
2019-05-23T15:28:23.184Z,22.30
2019-05-23T15:30:51.673Z,22.30
2019-05-23T15:33:20.628Z,22.40
2019-05-23T15:35:49.614Z,22.40
2019-05-23T15:38:18.396Z,22.40
2019-05-23T15:40:47.223Z,22.50
2019-05-23T15:48:13.034Z,22.50
2019-05-23T15:50:45.853Z,22.60
2019-05-23T15:53:20.799Z,22.60
2019-05-23T15:56:56.690Z,22.70
2019-05-23T15:59:30.412Z,22.70
2019-05-23T16:02:06.801Z,22.80
2019-05-23T16:04:35.475Z,22.80
2019-05-23T16:09:32.233Z,22.90
2019-05-23T16:12:01.043Z,23.00
2019-05-23T16:14:29.627Z,23.00
2019-05-23T16:16:58.338Z,23.10
2019-05-23T16:19:27.096Z,23.10
2019-05-23T16:21:55.613Z,23.10
2019-05-23T16:24:24.259Z,23.20
2019-05-23T16:26:53.085Z,23.30
2019-05-23T16:29:22.157Z,23.40
2019-05-23T16:31:51.271Z,23.40
2019-05-23T16:34:20.199Z,23.50
2019-05-23T16:36:48.731Z,23.50
2019-05-23T16:39:17.449Z,23.50
2019-05-23T16:41:45.906Z,23.60
2019-05-23T16:44:14.667Z,23.60
2019-05-23T16:46:43.234Z,23.60
2019-05-23T16:49:11.945Z,23.70
2019-05-23T16:51:40.435Z,23.70
2019-05-23T16:54:09.250Z,23.80
2019-05-23T16:56:43.471Z,23.90
2019-05-23T16:59:18.711Z,23.90
2019-05-23T17:01:57.770Z,24.00
2019-05-23T17:04:25.717Z,24.00
2019-05-23T17:06:59.418Z,24.10
2019-05-23T17:09:32.482Z,24.10
2019-05-23T17:12:06.517Z,24.20
2019-05-23T17:14:39.766Z,24.20
2019-05-23T17:17:38.314Z,24.30
2019-05-23T17:19:55.048Z,24.30
2019-05-23T17:22:29.252Z,24.40
2019-05-23T17:25:03.607Z,24.40
2019-05-23T17:27:38.474Z,24.50
2019-05-23T17:30:11.582Z,24.50
2019-05-23T17:32:40.349Z,24.50
2019-05-23T17:35:09.103Z,24.60
2019-05-23T17:37:37.838Z,24.60
2019-05-23T17:40:23.221Z,24.70
2019-05-23T17:42:35.606Z,24.60
2019-05-23T17:45:04.480Z,24.70
2019-05-23T17:50:01.800Z,24.80
2019-05-23T17:52:30.295Z,24.80
2019-05-23T17:54:59.045Z,24.80
2019-05-23T17:57:27.539Z,24.90
2019-05-23T17:59:56.258Z,25.00
2019-05-23T18:02:25.170Z,25.00
2019-05-23T18:07:22.367Z,25.00
2019-05-23T18:09:51.495Z,25.00
2019-05-23T18:12:20.669Z,25.00
2019-05-23T18:14:50.327Z,25.00
2019-05-23T18:17:19.062Z,25.00
2019-05-23T18:19:48.036Z,25.00
2019-05-23T18:22:16.927Z,25.00
2019-05-23T18:24:45.754Z,25.00
2019-05-23T18:27:14.227Z,25.00
2019-05-23T18:29:42.830Z,25.00
2019-05-23T18:32:14.941Z,25.00
2019-05-23T18:37:11.929Z,24.90
2019-05-23T18:39:40.685Z,24.90
2019-05-23T18:42:09.543Z,24.80
2019-05-23T18:47:09.984Z,24.70
2019-05-23T18:52:07.233Z,24.60
2019-05-23T18:54:35.986Z,24.60
2019-05-23T18:57:04.792Z,24.50
2019-05-23T18:59:33.675Z,24.50
2019-05-23T19:02:02.173Z,24.40
2019-05-23T19:04:31.474Z,24.40
2019-05-23T19:07:00.205Z,24.30
2019-05-23T19:09:28.966Z,24.20
2019-05-23T19:14:26.089Z,24.10
2019-05-23T19:16:55.336Z,24.10
2019-05-23T19:19:24.444Z,24.00
2019-05-23T19:21:53.139Z,24.00
2019-05-23T19:24:21.993Z,23.90
2019-05-23T19:29:19.608Z,23.80
2019-05-23T19:31:48.113Z,23.80
2019-05-23T19:34:17.397Z,23.80
2019-05-23T19:36:46.204Z,23.70
2019-05-23T19:39:14.700Z,23.70
2019-05-23T19:41:43.488Z,23.60
2019-05-23T19:44:12.335Z,23.60
2019-05-23T19:46:41.077Z,23.60
2019-05-23T19:51:38.129Z,23.60
2019-05-23T19:54:06.628Z,23.50
2019-05-23T19:59:03.604Z,23.50
2019-05-23T20:01:36.702Z,23.50
2019-05-23T20:04:05.271Z,23.50
2019-05-23T20:06:34.028Z,23.50
2019-05-23T20:09:02.516Z,23.50
2019-05-23T20:16:28.600Z,23.50
2019-05-23T20:18:57.100Z,23.50
2019-05-23T20:21:25.857Z,23.50
2019-05-23T20:23:54.956Z,23.50
2019-05-23T20:26:23.998Z,23.50
2019-05-23T20:28:53.091Z,23.50
2019-05-23T20:31:21.807Z,23.50
2019-05-23T20:33:50.563Z,23.40
2019-05-23T20:36:19.414Z,23.50
2019-05-23T20:38:48.122Z,23.50
2019-05-23T20:41:16.621Z,23.40
2019-05-23T20:43:45.698Z,23.40
2019-05-23T20:46:14.428Z,23.40
2019-05-23T20:51:11.522Z,23.40
2019-05-23T20:53:39.995Z,23.40
2019-05-23T20:56:08.810Z,23.40
